sensor_id;sensor_type;location;lat;lon;timestamp;temperature;humidity
40960;DHT22;27842;52.272;8.052;2023-05-07T00:00:19;15.70;91.80
40960;DHT22;27842;52.272;8.052;2023-05-07T00:02:45;15.60;92.00
40960;DHT22;27842;52.272;8.052;2023-05-07T00:05:11;15.70;91.90
40960;DHT22;27842;52.272;8.052;2023-05-07T00:07:36;15.50;92.10
40960;DHT22;27842;52.272;8.052;2023-05-07T00:10:03;15.50;92.20
40960;DHT22;27842;52.272;8.052;2023-05-07T00:12:28;15.40;92.30
40960;DHT22;27842;52.272;8.052;2023-05-07T00:14:57;15.40;92.30
40960;DHT22;27842;52.272;8.052;2023-05-07T00:17:22;15.40;92.30
40960;DHT22;27842;52.272;8.052;2023-05-07T00:19:48;15.30;92.30
40960;DHT22;27842;52.272;8.052;2023-05-07T00:22:14;15.40;92.30
40960;DHT22;27842;52.272;8.052;2023-05-07T00:24:39;15.40;92.40
40960;DHT22;27842;52.272;8.052;2023-05-07T00:27:05;15.40;92.40
40960;DHT22;27842;52.272;8.052;2023-05-07T00:29:30;15.30;92.40
40960;DHT22;27842;52.272;8.052;2023-05-07T00:31:56;15.30;92.40
40960;DHT22;27842;52.272;8.052;2023-05-07T00:34:22;15.30;92.40
40960;DHT22;27842;52.272;8.052;2023-05-07T00:36:48;15.30;92.40
40960;DHT22;27842;52.272;8.052;2023-05-07T00:39:13;15.20;92.50
40960;DHT22;27842;52.272;8.052;2023-05-07T00:41:39;15.20;92.50
40960;DHT22;27842;52.272;8.052;2023-05-07T00:44:05;15.10;92.60
40960;DHT22;27842;52.272;8.052;2023-05-07T00:46:31;15.10;92.70
40960;DHT22;27842;52.272;8.052;2023-05-07T00:48:57;15.20;92.70
40960;DHT22;27842;52.272;8.052;2023-05-07T00:51:24;15.10;92.80
40960;DHT22;27842;52.272;8.052;2023-05-07T00:53:50;15.00;92.80
40960;DHT22;27842;52.272;8.052;2023-05-07T00:56:16;14.90;92.80
40960;DHT22;27842;52.272;8.052;2023-05-07T00:58:42;15.00;92.90
40960;DHT22;27842;52.272;8.052;2023-05-07T01:01:08;15.00;92.90
40960;DHT22;27842;52.272;8.052;2023-05-07T01:03:33;15.00;92.90
40960;DHT22;27842;52.272;8.052;2023-05-07T01:05:59;15.00;92.80
40960;DHT22;27842;52.272;8.052;2023-05-07T01:08:26;15.00;92.80
40960;DHT22;27842;52.272;8.052;2023-05-07T01:10:55;15.00;92.70
40960;DHT22;27842;52.272;8.052;2023-05-07T01:13:21;14.90;92.80
40960;DHT22;27842;52.272;8.052;2023-05-07T01:15:47;15.00;92.90
40960;DHT22;27842;52.272;8.052;2023-05-07T01:18:13;14.90;92.80
40960;DHT22;27842;52.272;8.052;2023-05-07T01:20:39;14.90;92.80
40960;DHT22;27842;52.272;8.052;2023-05-07T01:23:06;15.00;92.80
40960;DHT22;27842;52.272;8.052;2023-05-07T01:25:32;14.90;92.80
40960;DHT22;27842;52.272;8.052;2023-05-07T01:27:58;14.90;92.90
40960;DHT22;27842;52.272;8.052;2023-05-07T01:30:25;14.80;92.90
40960;DHT22;27842;52.272;8.052;2023-05-07T01:32:56;14.80;92.90
40960;DHT22;27842;52.272;8.052;2023-05-07T01:35:27;14.80;92.90
40960;DHT22;27842;52.272;8.052;2023-05-07T01:37:54;14.70;93.10
40960;DHT22;27842;52.272;8.052;2023-05-07T01:40:20;14.70;93.10
40960;DHT22;27842;52.272;8.052;2023-05-07T01:42:46;14.70;93.10
40960;DHT22;27842;52.272;8.052;2023-05-07T01:45:13;14.70;93.10
40960;DHT22;27842;52.272;8.052;2023-05-07T01:47:39;14.70;93.20
40960;DHT22;27842;52.272;8.052;2023-05-07T01:50:09;14.60;93.20
40960;DHT22;27842;52.272;8.052;2023-05-07T01:52:37;14.60;93.30
40960;DHT22;27842;52.272;8.052;2023-05-07T01:55:03;14.60;93.30
40960;DHT22;27842;52.272;8.052;2023-05-07T01:57:29;14.60;93.30
40960;DHT22;27842;52.272;8.052;2023-05-07T01:59:54;14.60;93.30
40960;DHT22;27842;52.272;8.052;2023-05-07T02:02:20;14.60;93.30
40960;DHT22;27842;52.272;8.052;2023-05-07T02:04:46;14.60;93.40
40960;DHT22;27842;52.272;8.052;2023-05-07T02:07:11;14.50;93.40
40960;DHT22;27842;52.272;8.052;2023-05-07T02:09:37;14.50;93.50
40960;DHT22;27842;52.272;8.052;2023-05-07T02:12:03;14.50;93.50
40960;DHT22;27842;52.272;8.052;2023-05-07T02:14:29;14.50;93.60
40960;DHT22;27842;52.272;8.052;2023-05-07T02:16:54;14.50;93.60
40960;DHT22;27842;52.272;8.052;2023-05-07T02:19:20;14.40;93.60
40960;DHT22;27842;52.272;8.052;2023-05-07T02:21:46;14.50;93.60
40960;DHT22;27842;52.272;8.052;2023-05-07T02:24:12;14.50;93.60
40960;DHT22;27842;52.272;8.052;2023-05-07T02:26:39;14.40;93.60
40960;DHT22;27842;52.272;8.052;2023-05-07T02:29:05;14.50;93.70
40960;DHT22;27842;52.272;8.052;2023-05-07T02:31:30;14.50;93.70
40960;DHT22;27842;52.272;8.052;2023-05-07T02:33:56;14.40;93.70
40960;DHT22;27842;52.272;8.052;2023-05-07T02:36:21;14.40;93.70
40960;DHT22;27842;52.272;8.052;2023-05-07T02:38:47;14.40;93.80
40960;DHT22;27842;52.272;8.052;2023-05-07T02:41:12;14.30;93.90
40960;DHT22;27842;52.272;8.052;2023-05-07T02:43:38;14.20;94.00
40960;DHT22;27842;52.272;8.052;2023-05-07T02:46:06;14.20;94.00
40960;DHT22;27842;52.272;8.052;2023-05-07T02:48:32;14.20;94.10
40960;DHT22;27842;52.272;8.052;2023-05-07T02:50:58;14.20;94.10
40960;DHT22;27842;52.272;8.052;2023-05-07T02:53:24;14.20;94.10
40960;DHT22;27842;52.272;8.052;2023-05-07T02:55:55;14.20;94.10
40960;DHT22;27842;52.272;8.052;2023-05-07T02:58:24;14.20;94.10
40960;DHT22;27842;52.272;8.052;2023-05-07T03:00:49;14.20;94.20
40960;DHT22;27842;52.272;8.052;2023-05-07T03:03:15;14.20;94.10
40960;DHT22;27842;52.272;8.052;2023-05-07T03:05:41;14.20;94.10
40960;DHT22;27842;52.272;8.052;2023-05-07T03:08:07;14.20;94.10
40960;DHT22;27842;52.272;8.052;2023-05-07T03:10:33;14.20;94.20
40960;DHT22;27842;52.272;8.052;2023-05-07T03:12:59;14.10;94.20
40960;DHT22;27842;52.272;8.052;2023-05-07T03:15:25;14.20;94.30
40960;DHT22;27842;52.272;8.052;2023-05-07T03:17:50;14.10;94.30
40960;DHT22;27842;52.272;8.052;2023-05-07T03:20:16;14.10;94.40
40960;DHT22;27842;52.272;8.052;2023-05-07T03:22:41;14.10;94.40
40960;DHT22;27842;52.272;8.052;2023-05-07T03:25:08;14.00;94.40
40960;DHT22;27842;52.272;8.052;2023-05-07T03:27:34;14.10;94.50
40960;DHT22;27842;52.272;8.052;2023-05-07T03:29:59;14.00;94.50
40960;DHT22;27842;52.272;8.052;2023-05-07T03:32:25;13.90;94.60
40960;DHT22;27842;52.272;8.052;2023-05-07T03:34:51;13.80;94.70
40960;DHT22;27842;52.272;8.052;2023-05-07T03:37:16;13.90;94.70
40960;DHT22;27842;52.272;8.052;2023-05-07T03:39:42;13.90;94.70
40960;DHT22;27842;52.272;8.052;2023-05-07T03:42:08;13.90;94.80
40960;DHT22;27842;52.272;8.052;2023-05-07T03:44:33;13.90;94.70
40960;DHT22;27842;52.272;8.052;2023-05-07T03:46:59;13.80;94.80
40960;DHT22;27842;52.272;8.052;2023-05-07T03:49:24;13.80;94.90
40960;DHT22;27842;52.272;8.052;2023-05-07T03:51:50;13.80;94.90
40960;DHT22;27842;52.272;8.052;2023-05-07T03:54:15;13.80;95.00
40960;DHT22;27842;52.272;8.052;2023-05-07T03:56:41;13.70;95.00
40960;DHT22;27842;52.272;8.052;2023-05-07T03:59:07;13.80;95.10
40960;DHT22;27842;52.272;8.052;2023-05-07T04:01:32;13.70;95.10
40960;DHT22;27842;52.272;8.052;2023-05-07T04:03:58;13.70;95.10
40960;DHT22;27842;52.272;8.052;2023-05-07T04:06:24;13.70;95.20
40960;DHT22;27842;52.272;8.052;2023-05-07T04:08:49;13.70;95.30
40960;DHT22;27842;52.272;8.052;2023-05-07T04:11:15;13.60;95.30
40960;DHT22;27842;52.272;8.052;2023-05-07T04:13:40;13.60;95.40
40960;DHT22;27842;52.272;8.052;2023-05-07T04:16:06;13.50;95.30
40960;DHT22;27842;52.272;8.052;2023-05-07T04:18:32;13.60;95.40
40960;DHT22;27842;52.272;8.052;2023-05-07T04:20:57;13.60;95.30
40960;DHT22;27842;52.272;8.052;2023-05-07T04:23:23;13.60;95.40
40960;DHT22;27842;52.272;8.052;2023-05-07T04:25:48;13.60;95.40
40960;DHT22;27842;52.272;8.052;2023-05-07T04:28:15;13.50;95.40
40960;DHT22;27842;52.272;8.052;2023-05-07T04:30:41;13.50;95.50
40960;DHT22;27842;52.272;8.052;2023-05-07T04:33:06;13.50;95.50
40960;DHT22;27842;52.272;8.052;2023-05-07T04:35:33;13.50;95.60
40960;DHT22;27842;52.272;8.052;2023-05-07T04:37:58;13.60;95.50
40960;DHT22;27842;52.272;8.052;2023-05-07T04:40:24;13.50;95.60
40960;DHT22;27842;52.272;8.052;2023-05-07T04:42:50;13.60;95.50
40960;DHT22;27842;52.272;8.052;2023-05-07T04:45:15;13.60;95.40
40960;DHT22;27842;52.272;8.052;2023-05-07T04:47:41;13.50;95.50
40960;DHT22;27842;52.272;8.052;2023-05-07T04:50:07;13.60;95.50
40960;DHT22;27842;52.272;8.052;2023-05-07T04:52:33;13.60;95.50
40960;DHT22;27842;52.272;8.052;2023-05-07T04:54:59;13.60;95.50
40960;DHT22;27842;52.272;8.052;2023-05-07T04:57:26;13.70;95.50
40960;DHT22;27842;52.272;8.052;2023-05-07T04:59:52;13.60;95.40
40960;DHT22;27842;52.272;8.052;2023-05-07T05:02:18;13.60;95.50
40960;DHT22;27842;52.272;8.052;2023-05-07T05:04:43;13.60;95.50
40960;DHT22;27842;52.272;8.052;2023-05-07T05:07:09;13.70;95.50
40960;DHT22;27842;52.272;8.052;2023-05-07T05:09:35;13.60;95.50
40960;DHT22;27842;52.272;8.052;2023-05-07T05:12:00;13.60;95.60
40960;DHT22;27842;52.272;8.052;2023-05-07T05:14:26;13.60;95.60
40960;DHT22;27842;52.272;8.052;2023-05-07T05:16:51;13.50;95.70
40960;DHT22;27842;52.272;8.052;2023-05-07T05:19:17;13.50;95.70
40960;DHT22;27842;52.272;8.052;2023-05-07T05:21:42;13.60;95.70
40960;DHT22;27842;52.272;8.052;2023-05-07T05:24:08;13.60;96.00
40960;DHT22;27842;52.272;8.052;2023-05-07T05:26:40;13.60;95.70
40960;DHT22;27842;52.272;8.052;2023-05-07T05:29:05;13.60;95.70
40960;DHT22;27842;52.272;8.052;2023-05-07T05:31:31;13.60;95.70
40960;DHT22;27842;52.272;8.052;2023-05-07T05:33:57;13.60;95.80
40960;DHT22;27842;52.272;8.052;2023-05-07T05:36:22;13.60;95.80
40960;DHT22;27842;52.272;8.052;2023-05-07T05:38:48;13.60;95.90
40960;DHT22;27842;52.272;8.052;2023-05-07T05:41:13;13.50;96.00
40960;DHT22;27842;52.272;8.052;2023-05-07T05:43:39;13.60;95.90
40960;DHT22;27842;52.272;8.052;2023-05-07T05:46:05;13.60;95.90
40960;DHT22;27842;52.272;8.052;2023-05-07T05:48:31;13.70;95.90
40960;DHT22;27842;52.272;8.052;2023-05-07T05:50:56;13.70;95.90
40960;DHT22;27842;52.272;8.052;2023-05-07T05:53:22;13.70;95.90
40960;DHT22;27842;52.272;8.052;2023-05-07T05:55:48;13.80;95.90
40960;DHT22;27842;52.272;8.052;2023-05-07T05:58:14;13.80;95.80
40960;DHT22;27842;52.272;8.052;2023-05-07T06:00:40;13.80;95.80
40960;DHT22;27842;52.272;8.052;2023-05-07T06:03:06;13.80;95.80
40960;DHT22;27842;52.272;8.052;2023-05-07T06:05:31;13.80;95.90
40960;DHT22;27842;52.272;8.052;2023-05-07T06:07:57;13.80;95.90
40960;DHT22;27842;52.272;8.052;2023-05-07T06:10:22;13.80;95.90
40960;DHT22;27842;52.272;8.052;2023-05-07T06:12:49;13.90;95.90
40960;DHT22;27842;52.272;8.052;2023-05-07T06:15:15;13.90;95.90
40960;DHT22;27842;52.272;8.052;2023-05-07T06:17:40;13.90;95.80
40960;DHT22;27842;52.272;8.052;2023-05-07T06:20:06;13.90;95.80
40960;DHT22;27842;52.272;8.052;2023-05-07T06:22:32;13.90;95.80
40960;DHT22;27842;52.272;8.052;2023-05-07T06:24:57;14.00;95.80
40960;DHT22;27842;52.272;8.052;2023-05-07T06:27:23;14.10;95.80
40960;DHT22;27842;52.272;8.052;2023-05-07T06:29:49;14.00;95.80
40960;DHT22;27842;52.272;8.052;2023-05-07T06:32:15;14.00;95.90
40960;DHT22;27842;52.272;8.052;2023-05-07T06:34:41;14.00;95.90
40960;DHT22;27842;52.272;8.052;2023-05-07T06:37:06;14.10;96.20
40960;DHT22;27842;52.272;8.052;2023-05-07T06:39:32;14.10;95.90
40960;DHT22;27842;52.272;8.052;2023-05-07T06:41:59;14.00;95.90
40960;DHT22;27842;52.272;8.052;2023-05-07T06:44:25;14.10;96.00
40960;DHT22;27842;52.272;8.052;2023-05-07T06:46:50;14.10;96.10
40960;DHT22;27842;52.272;8.052;2023-05-07T06:49:16;14.10;95.90
40960;DHT22;27842;52.272;8.052;2023-05-07T06:51:41;14.00;96.10
40960;DHT22;27842;52.272;8.052;2023-05-07T06:54:07;14.00;96.00
40960;DHT22;27842;52.272;8.052;2023-05-07T06:56:33;14.00;96.00
40960;DHT22;27842;52.272;8.052;2023-05-07T06:59:00;14.10;95.90
40960;DHT22;27842;52.272;8.052;2023-05-07T07:01:26;14.20;95.80
40960;DHT22;27842;52.272;8.052;2023-05-07T07:03:51;14.20;95.70
40960;DHT22;27842;52.272;8.052;2023-05-07T07:06:17;14.20;95.80
40960;DHT22;27842;52.272;8.052;2023-05-07T07:08:43;14.30;95.70
40960;DHT22;27842;52.272;8.052;2023-05-07T07:11:09;14.30;95.70
40960;DHT22;27842;52.272;8.052;2023-05-07T07:13:35;14.30;95.50
40960;DHT22;27842;52.272;8.052;2023-05-07T07:16:01;14.30;95.60
40960;DHT22;27842;52.272;8.052;2023-05-07T07:18:26;14.30;95.60
40960;DHT22;27842;52.272;8.052;2023-05-07T07:20:52;14.30;95.60
40960;DHT22;27842;52.272;8.052;2023-05-07T07:23:18;14.40;95.60
40960;DHT22;27842;52.272;8.052;2023-05-07T07:25:44;14.40;95.50
40960;DHT22;27842;52.272;8.052;2023-05-07T07:28:10;14.40;95.50
40960;DHT22;27842;52.272;8.052;2023-05-07T07:30:36;14.50;95.40
40960;DHT22;27842;52.272;8.052;2023-05-07T07:33:02;14.40;95.50
40960;DHT22;27842;52.272;8.052;2023-05-07T07:35:34;14.40;95.60
40960;DHT22;27842;52.272;8.052;2023-05-07T07:38:00;14.50;95.50
40960;DHT22;27842;52.272;8.052;2023-05-07T07:40:26;14.50;95.40
40960;DHT22;27842;52.272;8.052;2023-05-07T07:42:53;14.50;95.30
40960;DHT22;27842;52.272;8.052;2023-05-07T07:45:18;14.50;95.40
40960;DHT22;27842;52.272;8.052;2023-05-07T07:47:44;14.60;95.40
40960;DHT22;27842;52.272;8.052;2023-05-07T07:50:10;14.60;95.20
40960;DHT22;27842;52.272;8.052;2023-05-07T07:52:36;14.60;95.20
40960;DHT22;27842;52.272;8.052;2023-05-07T07:55:04;14.60;95.30
40960;DHT22;27842;52.272;8.052;2023-05-07T07:57:31;14.60;95.20
40960;DHT22;27842;52.272;8.052;2023-05-07T07:59:58;14.60;95.20
40960;DHT22;27842;52.272;8.052;2023-05-07T08:02:25;14.70;95.10
40960;DHT22;27842;52.272;8.052;2023-05-07T08:04:51;14.60;95.20
40960;DHT22;27842;52.272;8.052;2023-05-07T08:07:16;14.60;95.20
40960;DHT22;27842;52.272;8.052;2023-05-07T08:09:44;14.70;95.20
40960;DHT22;27842;52.272;8.052;2023-05-07T08:12:09;14.70;95.10
40960;DHT22;27842;52.272;8.052;2023-05-07T08:14:35;14.70;95.10
40960;DHT22;27842;52.272;8.052;2023-05-07T08:17:01;14.80;95.00
40960;DHT22;27842;52.272;8.052;2023-05-07T08:19:27;14.80;94.90
40960;DHT22;27842;52.272;8.052;2023-05-07T08:21:52;14.80;95.10
40960;DHT22;27842;52.272;8.052;2023-05-07T08:24:18;14.80;95.10
40960;DHT22;27842;52.272;8.052;2023-05-07T08:26:44;14.80;95.10
40960;DHT22;27842;52.272;8.052;2023-05-07T08:29:10;14.90;95.00
40960;DHT22;27842;52.272;8.052;2023-05-07T08:31:36;14.90;95.00
40960;DHT22;27842;52.272;8.052;2023-05-07T08:34:02;14.90;95.00
40960;DHT22;27842;52.272;8.052;2023-05-07T08:36:28;15.10;94.80
40960;DHT22;27842;52.272;8.052;2023-05-07T08:38:54;15.10;94.70
40960;DHT22;27842;52.272;8.052;2023-05-07T08:41:20;15.20;94.60
40960;DHT22;27842;52.272;8.052;2023-05-07T08:43:48;15.30;94.60
40960;DHT22;27842;52.272;8.052;2023-05-07T08:46:18;15.40;94.50
40960;DHT22;27842;52.272;8.052;2023-05-07T08:48:45;15.50;94.30
40960;DHT22;27842;52.272;8.052;2023-05-07T08:51:16;15.50;94.30
40960;DHT22;27842;52.272;8.052;2023-05-07T08:53:43;15.60;94.00
40960;DHT22;27842;52.272;8.052;2023-05-07T08:56:09;15.60;93.80
40960;DHT22;27842;52.272;8.052;2023-05-07T08:58:35;15.60;93.80
40960;DHT22;27842;52.272;8.052;2023-05-07T09:01:05;15.70;93.90
40960;DHT22;27842;52.272;8.052;2023-05-07T09:03:32;15.70;93.80
40960;DHT22;27842;52.272;8.052;2023-05-07T09:05:57;15.80;93.80
40960;DHT22;27842;52.272;8.052;2023-05-07T09:08:27;15.90;93.60
40960;DHT22;27842;52.272;8.052;2023-05-07T09:10:53;15.80;93.70
40960;DHT22;27842;52.272;8.052;2023-05-07T09:13:19;15.80;93.80
40960;DHT22;27842;52.272;8.052;2023-05-07T09:15:45;15.90;93.60
40960;DHT22;27842;52.272;8.052;2023-05-07T09:18:11;15.90;93.70
40960;DHT22;27842;52.272;8.052;2023-05-07T09:20:38;16.00;93.70
40960;DHT22;27842;52.272;8.052;2023-05-07T09:23:04;16.00;93.60
40960;DHT22;27842;52.272;8.052;2023-05-07T09:25:31;16.10;93.50
40960;DHT22;27842;52.272;8.052;2023-05-07T09:28:03;16.10;93.50
40960;DHT22;27842;52.272;8.052;2023-05-07T09:30:32;16.20;93.30
40960;DHT22;27842;52.272;8.052;2023-05-07T09:32:59;16.30;93.30
40960;DHT22;27842;52.272;8.052;2023-05-07T09:35:26;16.30;93.20
40960;DHT22;27842;52.272;8.052;2023-05-07T09:37:56;16.40;93.10
40960;DHT22;27842;52.272;8.052;2023-05-07T09:40:26;16.40;93.00
40960;DHT22;27842;52.272;8.052;2023-05-07T09:42:52;16.40;93.10
40960;DHT22;27842;52.272;8.052;2023-05-07T09:45:28;16.50;93.00
40960;DHT22;27842;52.272;8.052;2023-05-07T09:47:56;16.60;92.70
40960;DHT22;27842;52.272;8.052;2023-05-07T09:50:27;16.60;92.70
40960;DHT22;27842;52.272;8.052;2023-05-07T09:52:54;16.50;92.70
40960;DHT22;27842;52.272;8.052;2023-05-07T09:55:20;16.50;92.70
40960;DHT22;27842;52.272;8.052;2023-05-07T09:57:50;16.50;92.70
40960;DHT22;27842;52.272;8.052;2023-05-07T10:00:19;16.50;92.80
40960;DHT22;27842;52.272;8.052;2023-05-07T10:02:46;16.60;92.70
40960;DHT22;27842;52.272;8.052;2023-05-07T10:05:15;16.60;93.00
40960;DHT22;27842;52.272;8.052;2023-05-07T10:07:41;16.70;92.70
40960;DHT22;27842;52.272;8.052;2023-05-07T10:10:07;16.70;92.50
40960;DHT22;27842;52.272;8.052;2023-05-07T10:12:33;16.80;92.40
40960;DHT22;27842;52.272;8.052;2023-05-07T10:15:06;16.90;92.40
40960;DHT22;27842;52.272;8.052;2023-05-07T10:17:35;16.90;92.40
40960;DHT22;27842;52.272;8.052;2023-05-07T10:20:01;16.90;92.40
40960;DHT22;27842;52.272;8.052;2023-05-07T10:22:27;17.10;92.40
40960;DHT22;27842;52.272;8.052;2023-05-07T10:24:55;17.10;92.20
40960;DHT22;27842;52.272;8.052;2023-05-07T10:27:24;17.10;92.10
40960;DHT22;27842;52.272;8.052;2023-05-07T10:30:26;17.10;92.30
40960;DHT22;27842;52.272;8.052;2023-05-07T10:32:59;17.20;92.30
40960;DHT22;27842;52.272;8.052;2023-05-07T10:35:32;17.20;92.30
40960;DHT22;27842;52.272;8.052;2023-05-07T10:38:02;17.40;92.00
40960;DHT22;27842;52.272;8.052;2023-05-07T10:40:27;17.50;91.80
40960;DHT22;27842;52.272;8.052;2023-05-07T10:43:01;17.50;91.90
40960;DHT22;27842;52.272;8.052;2023-05-07T10:45:28;17.60;91.80
40960;DHT22;27842;52.272;8.052;2023-05-07T10:48:13;17.70;91.60
40960;DHT22;27842;52.272;8.052;2023-05-07T10:50:40;17.80;91.60
40960;DHT22;27842;52.272;8.052;2023-05-07T10:58:42;18.00;91.10
40960;DHT22;27842;52.272;8.052;2023-05-07T11:01:07;18.00;91.00
40960;DHT22;27842;52.272;8.052;2023-05-07T11:03:33;18.00;90.90
40960;DHT22;27842;52.272;8.052;2023-05-07T11:06:15;18.10;91.00
40960;DHT22;27842;52.272;8.052;2023-05-07T11:08:57;18.00;90.90
40960;DHT22;27842;52.272;8.052;2023-05-07T11:11:48;18.10;90.90
40960;DHT22;27842;52.272;8.052;2023-05-07T11:17:08;18.20;90.80
40960;DHT22;27842;52.272;8.052;2023-05-07T11:19:51;18.20;90.80
40960;DHT22;27842;52.272;8.052;2023-05-07T11:25:05;18.20;90.80
40960;DHT22;27842;52.272;8.052;2023-05-07T11:27:32;18.30;90.80
40960;DHT22;27842;52.272;8.052;2023-05-07T11:29:58;18.40;90.70
40960;DHT22;27842;52.272;8.052;2023-05-07T11:32:29;18.50;90.70
40960;DHT22;27842;52.272;8.052;2023-05-07T11:34:55;18.60;90.50
40960;DHT22;27842;52.272;8.052;2023-05-07T11:37:23;18.70;90.40
40960;DHT22;27842;52.272;8.052;2023-05-07T11:39:49;18.80;90.20
40960;DHT22;27842;52.272;8.052;2023-05-07T11:42:49;18.80;90.00
40960;DHT22;27842;52.272;8.052;2023-05-07T11:45:23;18.80;89.90
40960;DHT22;27842;52.272;8.052;2023-05-07T11:47:52;18.80;90.00
40960;DHT22;27842;52.272;8.052;2023-05-07T11:50:17;18.80;90.10
40960;DHT22;27842;52.272;8.052;2023-05-07T11:52:50;18.80;89.70
40960;DHT22;27842;52.272;8.052;2023-05-07T11:55:18;18.80;90.00
40960;DHT22;27842;52.272;8.052;2023-05-07T11:57:44;18.80;90.00
40960;DHT22;27842;52.272;8.052;2023-05-07T12:00:10;18.80;90.00
40960;DHT22;27842;52.272;8.052;2023-05-07T12:02:36;18.80;89.60
40960;DHT22;27842;52.272;8.052;2023-05-07T12:05:02;18.80;89.50
40960;DHT22;27842;52.272;8.052;2023-05-07T12:07:27;18.70;89.70
40960;DHT22;27842;52.272;8.052;2023-05-07T12:09:53;18.70;90.00
40960;DHT22;27842;52.272;8.052;2023-05-07T12:12:19;18.70;90.10
40960;DHT22;27842;52.272;8.052;2023-05-07T12:14:45;18.70;90.00
40960;DHT22;27842;52.272;8.052;2023-05-07T12:17:12;18.80;89.70
40960;DHT22;27842;52.272;8.052;2023-05-07T12:19:40;18.70;89.70
40960;DHT22;27842;52.272;8.052;2023-05-07T12:22:10;18.80;89.70
40960;DHT22;27842;52.272;8.052;2023-05-07T12:24:50;19.00;89.10
40960;DHT22;27842;52.272;8.052;2023-05-07T12:27:26;19.00;88.90
40960;DHT22;27842;52.272;8.052;2023-05-07T12:29:51;19.00;88.50
40960;DHT22;27842;52.272;8.052;2023-05-07T12:32:19;18.90;88.70
40960;DHT22;27842;52.272;8.052;2023-05-07T12:34:45;19.00;88.90
40960;DHT22;27842;52.272;8.052;2023-05-07T12:37:11;19.00;88.80
40960;DHT22;27842;52.272;8.052;2023-05-07T12:39:38;19.10;88.80
40960;DHT22;27842;52.272;8.052;2023-05-07T12:42:03;19.20;88.90
40960;DHT22;27842;52.272;8.052;2023-05-07T12:44:33;19.30;88.70
40960;DHT22;27842;52.272;8.052;2023-05-07T12:47:03;19.40;88.10
40960;DHT22;27842;52.272;8.052;2023-05-07T12:49:28;19.50;87.40
40960;DHT22;27842;52.272;8.052;2023-05-07T12:51:54;19.60;87.40
40960;DHT22;27842;52.272;8.052;2023-05-07T12:54:34;19.70;87.40
40960;DHT22;27842;52.272;8.052;2023-05-07T12:57:06;19.80;87.00
40960;DHT22;27842;52.272;8.052;2023-05-07T12:59:40;20.00;86.80
40960;DHT22;27842;52.272;8.052;2023-05-07T13:02:07;20.20;86.40
40960;DHT22;27842;52.272;8.052;2023-05-07T13:04:33;20.30;86.00
40960;DHT22;27842;52.272;8.052;2023-05-07T13:07:00;20.40;85.50
40960;DHT22;27842;52.272;8.052;2023-05-07T13:09:25;20.50;84.40
40960;DHT22;27842;52.272;8.052;2023-05-07T13:11:51;20.60;83.90
40960;DHT22;27842;52.272;8.052;2023-05-07T13:14:16;20.50;84.50
40960;DHT22;27842;52.272;8.052;2023-05-07T13:16:42;20.60;84.20
40960;DHT22;27842;52.272;8.052;2023-05-07T13:19:08;20.80;83.60
40960;DHT22;27842;52.272;8.052;2023-05-07T13:21:33;20.80;83.50
40960;DHT22;27842;52.272;8.052;2023-05-07T13:23:59;20.90;83.50
40960;DHT22;27842;52.272;8.052;2023-05-07T13:26:26;20.90;83.40
40960;DHT22;27842;52.272;8.052;2023-05-07T13:28:53;20.90;83.10
40960;DHT22;27842;52.272;8.052;2023-05-07T13:31:18;21.00;82.90
40960;DHT22;27842;52.272;8.052;2023-05-07T13:33:45;21.00;82.80
40960;DHT22;27842;52.272;8.052;2023-05-07T13:36:11;21.10;82.50
40960;DHT22;27842;52.272;8.052;2023-05-07T13:38:36;21.10;82.10
40960;DHT22;27842;52.272;8.052;2023-05-07T13:41:02;21.20;82.20
40960;DHT22;27842;52.272;8.052;2023-05-07T13:43:27;21.10;82.10
40960;DHT22;27842;52.272;8.052;2023-05-07T13:45:53;21.10;82.50
40960;DHT22;27842;52.272;8.052;2023-05-07T13:48:18;21.20;81.80
40960;DHT22;27842;52.272;8.052;2023-05-07T13:50:44;21.30;81.30
40960;DHT22;27842;52.272;8.052;2023-05-07T13:53:09;21.30;81.50
40960;DHT22;27842;52.272;8.052;2023-05-07T13:55:35;21.30;81.20
40960;DHT22;27842;52.272;8.052;2023-05-07T13:58:02;21.20;81.00
40960;DHT22;27842;52.272;8.052;2023-05-07T14:00:28;21.20;81.40
40960;DHT22;27842;52.272;8.052;2023-05-07T14:02:55;21.30;81.00
40960;DHT22;27842;52.272;8.052;2023-05-07T14:05:21;21.30;80.60
40960;DHT22;27842;52.272;8.052;2023-05-07T14:07:49;21.40;80.40
40960;DHT22;27842;52.272;8.052;2023-05-07T14:10:17;21.40;80.10
40960;DHT22;27842;52.272;8.052;2023-05-07T14:12:44;21.30;80.10
40960;DHT22;27842;52.272;8.052;2023-05-07T14:15:10;21.40;80.30
40960;DHT22;27842;52.272;8.052;2023-05-07T14:17:36;21.50;79.90
40960;DHT22;27842;52.272;8.052;2023-05-07T14:20:02;21.40;80.10
40960;DHT22;27842;52.272;8.052;2023-05-07T14:22:28;21.40;80.20
40960;DHT22;27842;52.272;8.052;2023-05-07T14:24:53;21.40;80.50
40960;DHT22;27842;52.272;8.052;2023-05-07T14:27:19;21.30;80.80
40960;DHT22;27842;52.272;8.052;2023-05-07T14:29:44;21.30;80.90
40960;DHT22;27842;52.272;8.052;2023-05-07T14:32:11;21.30;80.10
40960;DHT22;27842;52.272;8.052;2023-05-07T14:34:36;21.20;79.90
40960;DHT22;27842;52.272;8.052;2023-05-07T14:37:03;21.20;80.00
40960;DHT22;27842;52.272;8.052;2023-05-07T14:39:29;21.20;80.00
40960;DHT22;27842;52.272;8.052;2023-05-07T14:41:55;21.10;80.00
40960;DHT22;27842;52.272;8.052;2023-05-07T14:44:21;21.00;80.40
40960;DHT22;27842;52.272;8.052;2023-05-07T14:46:47;20.90;81.10
40960;DHT22;27842;52.272;8.052;2023-05-07T14:49:14;20.90;80.70
40960;DHT22;27842;52.272;8.052;2023-05-07T14:51:46;20.90;80.50
40960;DHT22;27842;52.272;8.052;2023-05-07T14:54:12;20.90;80.40
40960;DHT22;27842;52.272;8.052;2023-05-07T14:56:39;20.90;80.10
40960;DHT22;27842;52.272;8.052;2023-05-07T14:59:05;20.80;80.20
40960;DHT22;27842;52.272;8.052;2023-05-07T15:01:31;20.70;80.80
40960;DHT22;27842;52.272;8.052;2023-05-07T15:03:56;20.60;81.10
40960;DHT22;27842;52.272;8.052;2023-05-07T15:06:22;20.60;80.70
40960;DHT22;27842;52.272;8.052;2023-05-07T15:08:48;20.40;81.20
40960;DHT22;27842;52.272;8.052;2023-05-07T15:11:14;20.40;81.20
40960;DHT22;27842;52.272;8.052;2023-05-07T15:13:41;20.40;81.60
40960;DHT22;27842;52.272;8.052;2023-05-07T15:16:07;20.40;81.70
40960;DHT22;27842;52.272;8.052;2023-05-07T15:18:32;20.30;81.70
40960;DHT22;27842;52.272;8.052;2023-05-07T15:20:58;20.30;81.70
40960;DHT22;27842;52.272;8.052;2023-05-07T15:23:24;20.20;81.80
40960;DHT22;27842;52.272;8.052;2023-05-07T15:25:49;20.20;81.90
40960;DHT22;27842;52.272;8.052;2023-05-07T15:28:15;20.10;82.20
40960;DHT22;27842;52.272;8.052;2023-05-07T15:30:41;20.00;81.80
40960;DHT22;27842;52.272;8.052;2023-05-07T15:33:07;20.10;81.80
40960;DHT22;27842;52.272;8.052;2023-05-07T15:35:33;20.00;81.70
40960;DHT22;27842;52.272;8.052;2023-05-07T15:37:58;20.00;81.70